sensor_id;sensor_type;location;lat;lon;timestamp;temperature;humidity
18321;DHT22;54904;54.350;18.664;2022-10-03T00:01:30;15.00;99.90
18321;DHT22;54904;54.350;18.664;2022-10-03T00:04:18;15.00;99.90
18321;DHT22;54904;54.350;18.664;2022-10-03T00:06:57;15.00;99.90
18321;DHT22;54904;54.350;18.664;2022-10-03T00:09:36;15.10;99.90
18321;DHT22;54904;54.350;18.664;2022-10-03T00:12:15;15.10;99.90
18321;DHT22;54904;54.350;18.664;2022-10-03T00:14:51;15.10;99.90
18321;DHT22;54904;54.350;18.664;2022-10-03T00:17:23;15.10;99.90
18321;DHT22;54904;54.350;18.664;2022-10-03T00:19:59;15.10;99.90
18321;DHT22;54904;54.350;18.664;2022-10-03T00:22:35;15.10;99.90
18321;DHT22;54904;54.350;18.664;2022-10-03T00:25:26;15.10;99.90
18321;DHT22;54904;54.350;18.664;2022-10-03T00:28:09;15.10;99.90
18321;DHT22;54904;54.350;18.664;2022-10-03T00:31:01;15.10;99.90
18321;DHT22;54904;54.350;18.664;2022-10-03T00:33:38;15.10;99.90
18321;DHT22;54904;54.350;18.664;2022-10-03T00:36:17;15.20;99.90
18321;DHT22;54904;54.350;18.664;2022-10-03T00:39:08;15.10;99.90
18321;DHT22;54904;54.350;18.664;2022-10-03T00:41:54;15.10;99.90
18321;DHT22;54904;54.350;18.664;2022-10-03T00:47:55;15.10;99.90
18321;DHT22;54904;54.350;18.664;2022-10-03T00:50:37;15.10;99.90
18321;DHT22;54904;54.350;18.664;2022-10-03T00:53:16;15.20;99.90
18321;DHT22;54904;54.350;18.664;2022-10-03T00:56:02;15.10;99.90
18321;DHT22;54904;54.350;18.664;2022-10-03T00:58:44;15.10;99.90
18321;DHT22;54904;54.350;18.664;2022-10-03T01:01:23;15.10;99.90
18321;DHT22;54904;54.350;18.664;2022-10-03T01:04:10;15.10;99.90
18321;DHT22;54904;54.350;18.664;2022-10-03T01:06:45;15.10;99.90
18321;DHT22;54904;54.350;18.664;2022-10-03T01:09:37;15.20;99.90
18321;DHT22;54904;54.350;18.664;2022-10-03T01:15:09;15.20;99.90
18321;DHT22;54904;54.350;18.664;2022-10-03T01:17:51;15.20;99.90
18321;DHT22;54904;54.350;18.664;2022-10-03T01:20:27;15.20;99.90
18321;DHT22;54904;54.350;18.664;2022-10-03T01:23:18;15.20;99.90
18321;DHT22;54904;54.350;18.664;2022-10-03T01:25:51;15.20;99.90
18321;DHT22;54904;54.350;18.664;2022-10-03T01:31:33;15.20;99.90
18321;DHT22;54904;54.350;18.664;2022-10-03T01:34:09;15.20;99.90
18321;DHT22;54904;54.350;18.664;2022-10-03T01:36:42;15.20;99.90
18321;DHT22;54904;54.350;18.664;2022-10-03T01:39:20;15.10;99.90
18321;DHT22;54904;54.350;18.664;2022-10-03T01:41:56;15.20;99.90
18321;DHT22;54904;54.350;18.664;2022-10-03T01:44:35;15.20;99.90
18321;DHT22;54904;54.350;18.664;2022-10-03T01:47:15;15.20;99.90
18321;DHT22;54904;54.350;18.664;2022-10-03T01:49:47;15.20;99.90
18321;DHT22;54904;54.350;18.664;2022-10-03T01:52:22;15.20;99.90
18321;DHT22;54904;54.350;18.664;2022-10-03T01:54:58;15.20;99.90
18321;DHT22;54904;54.350;18.664;2022-10-03T01:57:32;15.20;99.90
18321;DHT22;54904;54.350;18.664;2022-10-03T02:00:07;15.20;99.90
18321;DHT22;54904;54.350;18.664;2022-10-03T02:02:44;15.20;99.90
18321;DHT22;54904;54.350;18.664;2022-10-03T02:05:18;15.20;99.90
18321;DHT22;54904;54.350;18.664;2022-10-03T02:07:52;15.20;99.90
18321;DHT22;54904;54.350;18.664;2022-10-03T02:10:31;15.20;99.90
18321;DHT22;54904;54.350;18.664;2022-10-03T02:13:08;15.30;99.90
18321;DHT22;54904;54.350;18.664;2022-10-03T02:15:54;15.20;99.90
18321;DHT22;54904;54.350;18.664;2022-10-03T02:18:28;15.20;99.90
18321;DHT22;54904;54.350;18.664;2022-10-03T02:21:07;15.20;99.90
18321;DHT22;54904;54.350;18.664;2022-10-03T02:23:40;15.20;99.90
18321;DHT22;54904;54.350;18.664;2022-10-03T02:26:30;15.20;99.90
18321;DHT22;54904;54.350;18.664;2022-10-03T02:29:16;15.20;99.90
18321;DHT22;54904;54.350;18.664;2022-10-03T02:35:35;15.20;99.90
18321;DHT22;54904;54.350;18.664;2022-10-03T02:38:22;15.20;99.90
18321;DHT22;54904;54.350;18.664;2022-10-03T02:41:20;15.20;99.90
18321;DHT22;54904;54.350;18.664;2022-10-03T02:44:15;15.20;99.90
18321;DHT22;54904;54.350;18.664;2022-10-03T02:47:15;15.20;99.90
18321;DHT22;54904;54.350;18.664;2022-10-03T02:50:31;15.20;99.90
18321;DHT22;54904;54.350;18.664;2022-10-03T02:56:45;15.20;99.90
18321;DHT22;54904;54.350;18.664;2022-10-03T02:59:45;15.20;99.90
18321;DHT22;54904;54.350;18.664;2022-10-03T03:08:38;15.20;99.90
18321;DHT22;54904;54.350;18.664;2022-10-03T03:17:23;15.20;99.90
18321;DHT22;54904;54.350;18.664;2022-10-03T03:20:16;15.20;99.90
18321;DHT22;54904;54.350;18.664;2022-10-03T03:23:03;15.10;99.90
18321;DHT22;54904;54.350;18.664;2022-10-03T03:25:46;15.10;99.90
18321;DHT22;54904;54.350;18.664;2022-10-03T03:28:26;15.10;99.90
18321;DHT22;54904;54.350;18.664;2022-10-03T03:31:03;15.10;99.90
18321;DHT22;54904;54.350;18.664;2022-10-03T03:33:39;15.10;99.90
18321;DHT22;54904;54.350;18.664;2022-10-03T03:36:14;15.10;99.90
18321;DHT22;54904;54.350;18.664;2022-10-03T03:38:50;15.10;99.90
18321;DHT22;54904;54.350;18.664;2022-10-03T03:41:39;15.10;99.90
18321;DHT22;54904;54.350;18.664;2022-10-03T03:47:15;15.10;99.90
18321;DHT22;54904;54.350;18.664;2022-10-03T03:50:08;15.10;99.90
18321;DHT22;54904;54.350;18.664;2022-10-03T03:52:50;15.10;99.90
18321;DHT22;54904;54.350;18.664;2022-10-03T03:55:39;15.00;99.90
18321;DHT22;54904;54.350;18.664;2022-10-03T03:58:33;15.00;99.90
18321;DHT22;54904;54.350;18.664;2022-10-03T04:04:07;15.00;99.90
18321;DHT22;54904;54.350;18.664;2022-10-03T04:06:46;15.00;99.90
18321;DHT22;54904;54.350;18.664;2022-10-03T04:12:13;15.00;99.90
18321;DHT22;54904;54.350;18.664;2022-10-03T04:15:04;15.00;99.90
18321;DHT22;54904;54.350;18.664;2022-10-03T04:17:41;15.00;99.90
18321;DHT22;54904;54.350;18.664;2022-10-03T04:20:43;15.00;99.90
18321;DHT22;54904;54.350;18.664;2022-10-03T04:23:33;15.00;99.90
18321;DHT22;54904;54.350;18.664;2022-10-03T04:26:19;15.00;99.90
18321;DHT22;54904;54.350;18.664;2022-10-03T04:28:57;15.00;99.90
18321;DHT22;54904;54.350;18.664;2022-10-03T04:31:39;15.00;99.90
18321;DHT22;54904;54.350;18.664;2022-10-03T04:34:24;15.00;99.90
18321;DHT22;54904;54.350;18.664;2022-10-03T04:37:14;15.10;99.90
18321;DHT22;54904;54.350;18.664;2022-10-03T04:39:49;15.10;99.90
18321;DHT22;54904;54.350;18.664;2022-10-03T04:42:30;15.10;99.90
18321;DHT22;54904;54.350;18.664;2022-10-03T04:45:09;15.10;99.90
18321;DHT22;54904;54.350;18.664;2022-10-03T04:47:46;15.10;99.90
18321;DHT22;54904;54.350;18.664;2022-10-03T04:50:23;15.10;99.90
18321;DHT22;54904;54.350;18.664;2022-10-03T04:53:00;15.10;99.90
18321;DHT22;54904;54.350;18.664;2022-10-03T04:55:39;15.10;99.90
18321;DHT22;54904;54.350;18.664;2022-10-03T04:58:16;15.10;99.90
18321;DHT22;54904;54.350;18.664;2022-10-03T05:00:53;15.10;99.90
18321;DHT22;54904;54.350;18.664;2022-10-03T05:03:32;15.10;99.90
18321;DHT22;54904;54.350;18.664;2022-10-03T05:06:08;15.10;99.90
18321;DHT22;54904;54.350;18.664;2022-10-03T05:08:50;15.10;99.90
18321;DHT22;54904;54.350;18.664;2022-10-03T05:11:32;15.10;99.90
18321;DHT22;54904;54.350;18.664;2022-10-03T05:14:08;15.10;99.90
18321;DHT22;54904;54.350;18.664;2022-10-03T05:16:39;15.10;99.90
18321;DHT22;54904;54.350;18.664;2022-10-03T05:19:48;15.10;99.90
18321;DHT22;54904;54.350;18.664;2022-10-03T05:22:28;15.10;99.90
18321;DHT22;54904;54.350;18.664;2022-10-03T05:25:02;15.10;99.90
18321;DHT22;54904;54.350;18.664;2022-10-03T05:27:41;15.10;99.90
18321;DHT22;54904;54.350;18.664;2022-10-03T05:30:16;15.10;99.90
18321;DHT22;54904;54.350;18.664;2022-10-03T05:32:47;15.10;99.90
18321;DHT22;54904;54.350;18.664;2022-10-03T05:35:27;15.10;99.90
18321;DHT22;54904;54.350;18.664;2022-10-03T05:41:03;15.10;99.90
18321;DHT22;54904;54.350;18.664;2022-10-03T05:43:54;15.10;99.90
18321;DHT22;54904;54.350;18.664;2022-10-03T05:46:40;15.00;99.90
18321;DHT22;54904;54.350;18.664;2022-10-03T05:49:36;15.00;99.90
18321;DHT22;54904;54.350;18.664;2022-10-03T05:52:28;15.00;99.90
18321;DHT22;54904;54.350;18.664;2022-10-03T05:55:27;15.00;99.90
18321;DHT22;54904;54.350;18.664;2022-10-03T05:58:15;15.00;99.90
18321;DHT22;54904;54.350;18.664;2022-10-03T06:04:04;15.00;99.90
18321;DHT22;54904;54.350;18.664;2022-10-03T06:06:50;15.00;99.90
18321;DHT22;54904;54.350;18.664;2022-10-03T06:09:58;15.00;99.90
18321;DHT22;54904;54.350;18.664;2022-10-03T06:12:36;15.00;99.90
18321;DHT22;54904;54.350;18.664;2022-10-03T06:15:28;15.00;99.90
18321;DHT22;54904;54.350;18.664;2022-10-03T06:18:10;15.00;99.90
18321;DHT22;54904;54.350;18.664;2022-10-03T06:21:23;15.00;99.90
18321;DHT22;54904;54.350;18.664;2022-10-03T06:27:17;14.90;99.90
18321;DHT22;54904;54.350;18.664;2022-10-03T06:30:17;14.90;99.90
18321;DHT22;54904;54.350;18.664;2022-10-03T06:33:11;14.90;99.90
18321;DHT22;54904;54.350;18.664;2022-10-03T06:36:20;14.90;99.90
18321;DHT22;54904;54.350;18.664;2022-10-03T06:39:40;14.90;99.90
18321;DHT22;54904;54.350;18.664;2022-10-03T06:45:32;14.90;99.90
18321;DHT22;54904;54.350;18.664;2022-10-03T06:48:26;14.90;99.90
18321;DHT22;54904;54.350;18.664;2022-10-03T06:51:16;14.90;99.90
18321;DHT22;54904;54.350;18.664;2022-10-03T06:54:10;14.90;99.90
18321;DHT22;54904;54.350;18.664;2022-10-03T06:57:04;14.90;99.90
18321;DHT22;54904;54.350;18.664;2022-10-03T07:02:55;14.90;99.90
18321;DHT22;54904;54.350;18.664;2022-10-03T07:05:53;14.90;99.90
18321;DHT22;54904;54.350;18.664;2022-10-03T07:11:38;15.00;99.90
18321;DHT22;54904;54.350;18.664;2022-10-03T07:17:29;15.20;99.90
18321;DHT22;54904;54.350;18.664;2022-10-03T07:20:23;15.30;99.90
18321;DHT22;54904;54.350;18.664;2022-10-03T07:29:22;15.40;99.90
18321;DHT22;54904;54.350;18.664;2022-10-03T07:31:59;15.40;99.90
18321;DHT22;54904;54.350;18.664;2022-10-03T07:41:20;15.50;99.90
18321;DHT22;54904;54.350;18.664;2022-10-03T07:47:37;15.80;99.90
18321;DHT22;54904;54.350;18.664;2022-10-03T07:50:48;15.40;99.90
18321;DHT22;54904;54.350;18.664;2022-10-03T07:53:39;15.40;99.90
18321;DHT22;54904;54.350;18.664;2022-10-03T07:56:26;15.30;99.90
18321;DHT22;54904;54.350;18.664;2022-10-03T07:59:18;15.30;99.90
18321;DHT22;54904;54.350;18.664;2022-10-03T08:01:55;15.20;99.90
18321;DHT22;54904;54.350;18.664;2022-10-03T08:04:49;15.10;99.90
18321;DHT22;54904;54.350;18.664;2022-10-03T08:07:41;15.10;99.90
18321;DHT22;54904;54.350;18.664;2022-10-03T08:13:38;15.10;99.90
18321;DHT22;54904;54.350;18.664;2022-10-03T08:16:23;15.10;99.90
18321;DHT22;54904;54.350;18.664;2022-10-03T08:19:07;15.00;99.90
18321;DHT22;54904;54.350;18.664;2022-10-03T08:21:54;15.00;99.90
18321;DHT22;54904;54.350;18.664;2022-10-03T08:27:25;14.80;99.90
18321;DHT22;54904;54.350;18.664;2022-10-03T08:30:18;14.80;99.90
18321;DHT22;54904;54.350;18.664;2022-10-03T08:32:57;14.80;99.90
18321;DHT22;54904;54.350;18.664;2022-10-03T08:38:47;14.80;99.90
18321;DHT22;54904;54.350;18.664;2022-10-03T08:41:45;14.90;99.90
18321;DHT22;54904;54.350;18.664;2022-10-03T08:47:41;14.80;99.90
18321;DHT22;54904;54.350;18.664;2022-10-03T08:50:47;14.80;99.90
18321;DHT22;54904;54.350;18.664;2022-10-03T08:53:48;14.80;99.90
18321;DHT22;54904;54.350;18.664;2022-10-03T08:56:21;14.80;99.90
18321;DHT22;54904;54.350;18.664;2022-10-03T08:59:23;14.80;99.90
18321;DHT22;54904;54.350;18.664;2022-10-03T09:02:49;14.90;99.90
18321;DHT22;54904;54.350;18.664;2022-10-03T09:12:13;15.10;99.90
18321;DHT22;54904;54.350;18.664;2022-10-03T09:15:07;15.20;99.90
18321;DHT22;54904;54.350;18.664;2022-10-03T09:21:07;15.30;99.90
18321;DHT22;54904;54.350;18.664;2022-10-03T09:24:23;15.30;99.90
18321;DHT22;54904;54.350;18.664;2022-10-03T09:27:17;15.30;99.90
18321;DHT22;54904;54.350;18.664;2022-10-03T09:30:15;15.30;99.90
18321;DHT22;54904;54.350;18.664;2022-10-03T09:36:11;15.40;99.90
18321;DHT22;54904;54.350;18.664;2022-10-03T09:42:09;15.70;99.90
18321;DHT22;54904;54.350;18.664;2022-10-03T09:45:13;16.00;99.90
18321;DHT22;54904;54.350;18.664;2022-10-03T09:48:07;16.30;99.90
18321;DHT22;54904;54.350;18.664;2022-10-03T09:50:57;16.50;99.90
18321;DHT22;54904;54.350;18.664;2022-10-03T09:56:44;18.90;99.90
18321;DHT22;54904;54.350;18.664;2022-10-03T09:59:39;20.50;99.90
18321;DHT22;54904;54.350;18.664;2022-10-03T10:08:43;22.80;97.30
18321;DHT22;54904;54.350;18.664;2022-10-03T10:11:23;23.80;96.10
18321;DHT22;54904;54.350;18.664;2022-10-03T10:14:19;24.70;94.40
18321;DHT22;54904;54.350;18.664;2022-10-03T10:20:21;23.20;92.70
18321;DHT22;54904;54.350;18.664;2022-10-03T10:29:23;20.60;92.80
18321;DHT22;54904;54.350;18.664;2022-10-03T10:44:56;19.90;93.20
18321;DHT22;54904;54.350;18.664;2022-10-03T10:48:14;19.60;93.50
18321;DHT22;54904;54.350;18.664;2022-10-03T10:51:22;19.20;93.80
18321;DHT22;54904;54.350;18.664;2022-10-03T10:54:38;19.00;94.40
18321;DHT22;54904;54.350;18.664;2022-10-03T10:57:23;19.30;94.50
18321;DHT22;54904;54.350;18.664;2022-10-03T11:00:13;19.60;94.20
18321;DHT22;54904;54.350;18.664;2022-10-03T11:12:57;19.00;94.30
18321;DHT22;54904;54.350;18.664;2022-10-03T11:19:02;18.70;94.60
18321;DHT22;54904;54.350;18.664;2022-10-03T11:37:36;18.00;95.00
18321;DHT22;54904;54.350;18.664;2022-10-03T11:40:26;17.80;94.80
18321;DHT22;54904;54.350;18.664;2022-10-03T11:43:06;17.60;94.50
18321;DHT22;54904;54.350;18.664;2022-10-03T11:45:39;17.50;94.50
18321;DHT22;54904;54.350;18.664;2022-10-03T11:48:23;17.30;94.70
18321;DHT22;54904;54.350;18.664;2022-10-03T11:51:00;17.20;95.00
18321;DHT22;54904;54.350;18.664;2022-10-03T11:53:38;17.10;95.50
18321;DHT22;54904;54.350;18.664;2022-10-03T11:56:33;17.00;96.00
18321;DHT22;54904;54.350;18.664;2022-10-03T11:59:22;16.80;96.60
18321;DHT22;54904;54.350;18.664;2022-10-03T12:02:13;16.80;96.90
18321;DHT22;54904;54.350;18.664;2022-10-03T12:04:57;16.80;97.20
18321;DHT22;54904;54.350;18.664;2022-10-03T12:07:39;17.00;97.50
18321;DHT22;54904;54.350;18.664;2022-10-03T12:10:36;17.10;97.30
18321;DHT22;54904;54.350;18.664;2022-10-03T12:13:09;17.30;97.20
18321;DHT22;54904;54.350;18.664;2022-10-03T12:15:42;17.90;97.30
18321;DHT22;54904;54.350;18.664;2022-10-03T12:18:15;18.70;96.50
18321;DHT22;54904;54.350;18.664;2022-10-03T12:21:08;20.00;95.90
18321;DHT22;54904;54.350;18.664;2022-10-03T12:24:00;21.80;94.30
18321;DHT22;54904;54.350;18.664;2022-10-03T12:26:42;23.30;92.40
18321;DHT22;54904;54.350;18.664;2022-10-03T12:29:15;24.70;91.00
18321;DHT22;54904;54.350;18.664;2022-10-03T12:31:53;26.10;87.60
18321;DHT22;54904;54.350;18.664;2022-10-03T12:34:36;27.30;83.40
18321;DHT22;54904;54.350;18.664;2022-10-03T12:40:03;28.20;74.90
18321;DHT22;54904;54.350;18.664;2022-10-03T12:42:41;27.00;75.60
18321;DHT22;54904;54.350;18.664;2022-10-03T12:45:20;25.50;76.00
18321;DHT22;54904;54.350;18.664;2022-10-03T12:48:01;24.50;78.50
18321;DHT22;54904;54.350;18.664;2022-10-03T12:50:40;23.70;79.90
18321;DHT22;54904;54.350;18.664;2022-10-03T12:53:21;24.30;81.50
18321;DHT22;54904;54.350;18.664;2022-10-03T12:56:01;24.90;79.10
18321;DHT22;54904;54.350;18.664;2022-10-03T12:58:42;24.40;78.40
18321;DHT22;54904;54.350;18.664;2022-10-03T13:01:23;24.20;78.60
18321;DHT22;54904;54.350;18.664;2022-10-03T13:03:54;23.80;78.30
18321;DHT22;54904;54.350;18.664;2022-10-03T13:06:42;23.40;78.00
18321;DHT22;54904;54.350;18.664;2022-10-03T13:09:22;23.00;78.30
18321;DHT22;54904;54.350;18.664;2022-10-03T13:11:57;22.80;78.10
18321;DHT22;54904;54.350;18.664;2022-10-03T13:14:33;22.50;76.90
18321;DHT22;54904;54.350;18.664;2022-10-03T13:17:11;21.90;76.20
18321;DHT22;54904;54.350;18.664;2022-10-03T13:19:49;21.30;76.30
18321;DHT22;54904;54.350;18.664;2022-10-03T13:22:29;20.90;77.00
18321;DHT22;54904;54.350;18.664;2022-10-03T13:25:03;20.50;77.70
18321;DHT22;54904;54.350;18.664;2022-10-03T13:27:39;20.20;78.60
18321;DHT22;54904;54.350;18.664;2022-10-03T13:30:17;20.00;79.20
18321;DHT22;54904;54.350;18.664;2022-10-03T13:32:49;19.80;79.90
18321;DHT22;54904;54.350;18.664;2022-10-03T13:35:34;19.70;79.80
18321;DHT22;54904;54.350;18.664;2022-10-03T13:38:43;19.50;80.20
18321;DHT22;54904;54.350;18.664;2022-10-03T13:41:25;19.50;81.00
18321;DHT22;54904;54.350;18.664;2022-10-03T13:43:59;19.40;81.30
18321;DHT22;54904;54.350;18.664;2022-10-03T13:46:37;19.40;81.60
18321;DHT22;54904;54.350;18.664;2022-10-03T13:49:12;19.40;81.80
18321;DHT22;54904;54.350;18.664;2022-10-03T13:51:49;19.30;82.00
18321;DHT22;54904;54.350;18.664;2022-10-03T13:54:23;19.30;82.20
18321;DHT22;54904;54.350;18.664;2022-10-03T13:57:07;19.20;82.70
18321;DHT22;54904;54.350;18.664;2022-10-03T13:59:42;19.10;83.00
18321;DHT22;54904;54.350;18.664;2022-10-03T14:02:41;19.00;83.20
18321;DHT22;54904;54.350;18.664;2022-10-03T14:08:23;18.80;84.40
18321;DHT22;54904;54.350;18.664;2022-10-03T14:11:14;18.70;84.00
18321;DHT22;54904;54.350;18.664;2022-10-03T14:13:59;18.60;84.30
18321;DHT22;54904;54.350;18.664;2022-10-03T14:16:34;18.50;84.60
18321;DHT22;54904;54.350;18.664;2022-10-03T14:19:09;18.40;85.00
18321;DHT22;54904;54.350;18.664;2022-10-03T14:21:55;18.40;85.60
18321;DHT22;54904;54.350;18.664;2022-10-03T14:24:33;18.30;86.10
18321;DHT22;54904;54.350;18.664;2022-10-03T14:27:10;18.20;86.50
18321;DHT22;54904;54.350;18.664;2022-10-03T14:29:49;18.20;87.20
18321;DHT22;54904;54.350;18.664;2022-10-03T14:32:24;18.10;87.60
18321;DHT22;54904;54.350;18.664;2022-10-03T14:35:00;18.00;87.90
18321;DHT22;54904;54.350;18.664;2022-10-03T14:37:38;18.00;88.30
18321;DHT22;54904;54.350;18.664;2022-10-03T14:40:16;17.90;89.10
18321;DHT22;54904;54.350;18.664;2022-10-03T14:43:03;17.80;90.00
18321;DHT22;54904;54.350;18.664;2022-10-03T14:45:36;17.80;90.20
18321;DHT22;54904;54.350;18.664;2022-10-03T14:48:07;17.70;90.50
18321;DHT22;54904;54.350;18.664;2022-10-03T14:50:40;17.70;90.70
18321;DHT22;54904;54.350;18.664;2022-10-03T14:53:14;17.70;91.00
18321;DHT22;54904;54.350;18.664;2022-10-03T14:55:45;17.70;91.20
18321;DHT22;54904;54.350;18.664;2022-10-03T14:58:21;17.60;91.40
18321;DHT22;54904;54.350;18.664;2022-10-03T15:01:00;17.60;91.60
18321;DHT22;54904;54.350;18.664;2022-10-03T15:03:31;17.60;91.80
18321;DHT22;54904;54.350;18.664;2022-10-03T15:06:35;17.60;92.00
18321;DHT22;54904;54.350;18.664;2022-10-03T15:09:09;17.60;92.10
18321;DHT22;54904;54.350;18.664;2022-10-03T15:11:44;17.60;92.20
18321;DHT22;54904;54.350;18.664;2022-10-03T15:14:13;17.60;92.30
18321;DHT22;54904;54.350;18.664;2022-10-03T15:16:44;17.60;92.50
18321;DHT22;54904;54.350;18.664;2022-10-03T15:19:15;17.50;93.00
18321;DHT22;54904;54.350;18.664;2022-10-03T15:21:46;17.40;93.10
18321;DHT22;54904;54.350;18.664;2022-10-03T15:24:19;17.40;93.70
18321;DHT22;54904;54.350;18.664;2022-10-03T15:26:50;17.30;94.00
18321;DHT22;54904;54.350;18.664;2022-10-03T15:29:18;17.20;94.30
18321;DHT22;54904;54.350;18.664;2022-10-03T15:31:46;17.20;94.50
18321;DHT22;54904;54.350;18.664;2022-10-03T15:34:17;17.20;94.90
18321;DHT22;54904;54.350;18.664;2022-10-03T15:36:48;17.20;95.10
18321;DHT22;54904;54.350;18.664;2022-10-03T15:39:23;17.20;95.30
18321;DHT22;54904;54.350;18.664;2022-10-03T15:41:53;17.10;95.40
18321;DHT22;54904;54.350;18.664;2022-10-03T15:44:24;17.10;95.50
18321;DHT22;54904;54.350;18.664;2022-10-03T15:46:58;17.10;95.50
18321;DHT22;54904;54.350;18.664;2022-10-03T15:49:32;17.00;95.40
18321;DHT22;54904;54.350;18.664;2022-10-03T15:52:12;17.00;95.70
18321;DHT22;54904;54.350;18.664;2022-10-03T15:54:45;17.00;95.40
18321;DHT22;54904;54.350;18.664;2022-10-03T15:57:17;16.90;95.40
18321;DHT22;54904;54.350;18.664;2022-10-03T15:59:50;16.90;95.50
18321;DHT22;54904;54.350;18.664;2022-10-03T16:02:21;16.90;95.50
18321;DHT22;54904;54.350;18.664;2022-10-03T16:04:53;16.80;95.50
18321;DHT22;54904;54.350;18.664;2022-10-03T16:07:30;16.80;95.50
18321;DHT22;54904;54.350;18.664;2022-10-03T16:10:17;16.80;95.60
18321;DHT22;54904;54.350;18.664;2022-10-03T16:12:57;16.70;95.60
18321;DHT22;54904;54.350;18.664;2022-10-03T16:15:45;16.70;95.70
18321;DHT22;54904;54.350;18.664;2022-10-03T16:21:24;16.70;95.80
18321;DHT22;54904;54.350;18.664;2022-10-03T16:23:57;16.70;95.80
18321;DHT22;54904;54.350;18.664;2022-10-03T16:26:28;16.70;96.20
18321;DHT22;54904;54.350;18.664;2022-10-03T16:29:06;16.70;95.90
18321;DHT22;54904;54.350;18.664;2022-10-03T16:31:41;16.60;95.90
18321;DHT22;54904;54.350;18.664;2022-10-03T16:34:13;16.70;96.10
18321;DHT22;54904;54.350;18.664;2022-10-03T16:40:04;16.60;96.20
18321;DHT22;54904;54.350;18.664;2022-10-03T16:42:43;16.60;96.30
18321;DHT22;54904;54.350;18.664;2022-10-03T16:45:24;16.60;96.60
18321;DHT22;54904;54.350;18.664;2022-10-03T16:47:57;16.60;96.50
18321;DHT22;54904;54.350;18.664;2022-10-03T16:50:50;16.60;96.60
18321;DHT22;54904;54.350;18.664;2022-10-03T16:53:28;16.60;96.70
18321;DHT22;54904;54.350;18.664;2022-10-03T16:56:05;16.60;97.00
18321;DHT22;54904;54.350;18.664;2022-10-03T16:58:52;16.60;96.90
18321;DHT22;54904;54.350;18.664;2022-10-03T17:01:28;16.60;97.10
18321;DHT22;54904;54.350;18.664;2022-10-03T17:04:07;16.60;97.00
18321;DHT22;54904;54.350;18.664;2022-10-03T17:06:37;16.60;97.20
18321;DHT22;54904;54.350;18.664;2022-10-03T17:09:12;16.60;97.30
18321;DHT22;54904;54.350;18.664;2022-10-03T17:11:46;16.60;97.30
18321;DHT22;54904;54.350;18.664;2022-10-03T17:14:18;16.60;97.40
18321;DHT22;54904;54.350;18.664;2022-10-03T17:16:50;16.60;97.50
18321;DHT22;54904;54.350;18.664;2022-10-03T17:19:24;16.60;97.60
18321;DHT22;54904;54.350;18.664;2022-10-03T17:21:55;16.60;97.60
18321;DHT22;54904;54.350;18.664;2022-10-03T17:24:37;16.60;97.70
18321;DHT22;54904;54.350;18.664;2022-10-03T17:27:13;16.60;97.80
18321;DHT22;54904;54.350;18.664;2022-10-03T17:29:45;16.60;97.90
18321;DHT22;54904;54.350;18.664;2022-10-03T17:32:19;16.60;98.00
18321;DHT22;54904;54.350;18.664;2022-10-03T17:34:54;16.50;98.10
18321;DHT22;54904;54.350;18.664;2022-10-03T17:37:45;16.50;98.20
18321;DHT22;54904;54.350;18.664;2022-10-03T17:40:21;16.50;98.20
18321;DHT22;54904;54.350;18.664;2022-10-03T17:42:53;16.50;98.30
18321;DHT22;54904;54.350;18.664;2022-10-03T17:45:31;16.50;98.30
18321;DHT22;54904;54.350;18.664;2022-10-03T17:48:07;16.50;98.40
18321;DHT22;54904;54.350;18.664;2022-10-03T17:50:53;16.50;98.50
18321;DHT22;54904;54.350;18.664;2022-10-03T17:53:26;16.50;98.60
18321;DHT22;54904;54.350;18.664;2022-10-03T17:55:56;16.40;98.70
18321;DHT22;54904;54.350;18.664;2022-10-03T17:58:28;16.40;98.80
18321;DHT22;54904;54.350;18.664;2022-10-03T18:01:02;16.40;98.80
18321;DHT22;54904;54.350;18.664;2022-10-03T18:03:36;16.40;98.90
18321;DHT22;54904;54.350;18.664;2022-10-03T18:06:29;16.40;98.90
18321;DHT22;54904;54.350;18.664;2022-10-03T18:09:05;16.50;99.00
18321;DHT22;54904;54.350;18.664;2022-10-03T18:11:36;16.50;99.00
18321;DHT22;54904;54.350;18.664;2022-10-03T18:14:12;16.40;99.00
18321;DHT22;54904;54.350;18.664;2022-10-03T18:16:45;16.40;99.10
18321;DHT22;54904;54.350;18.664;2022-10-03T18:19:23;16.40;99.10
18321;DHT22;54904;54.350;18.664;2022-10-03T18:21:58;16.40;99.20
18321;DHT22;54904;54.350;18.664;2022-10-03T18:24:41;16.40;99.20
18321;DHT22;54904;54.350;18.664;2022-10-03T18:27:40;16.40;99.30
18321;DHT22;54904;54.350;18.664;2022-10-03T18:30:18;16.40;99.30
18321;DHT22;54904;54.350;18.664;2022-10-03T18:32:47;16.40;99.40
18321;DHT22;54904;54.350;18.664;2022-10-03T18:35:18;16.40;99.50
18321;DHT22;54904;54.350;18.664;2022-10-03T18:37:58;16.40;99.50
18321;DHT22;54904;54.350;18.664;2022-10-03T18:40:28;16.40;99.60
18321;DHT22;54904;54.350;18.664;2022-10-03T18:42:56;16.40;99.60
18321;DHT22;54904;54.350;18.664;2022-10-03T18:45:29;16.40;99.60
18321;DHT22;54904;54.350;18.664;2022-10-03T18:48:03;16.40;99.60
18321;DHT22;54904;54.350;18.664;2022-10-03T18:50:44;16.40;99.70
18321;DHT22;54904;54.350;18.664;2022-10-03T18:53:18;16.40;99.70
18321;DHT22;54904;54.350;18.664;2022-10-03T18:55:56;16.40;99.70
18321;DHT22;54904;54.350;18.664;2022-10-03T18:58:27;16.30;99.70
18321;DHT22;54904;54.350;18.664;2022-10-03T19:01:00;16.30;99.80
18321;DHT22;54904;54.350;18.664;2022-10-03T19:03:34;16.30;99.80
18321;DHT22;54904;54.350;18.664;2022-10-03T19:06:04;16.30;99.80
18321;DHT22;54904;54.350;18.664;2022-10-03T19:08:36;16.30;99.80
18321;DHT22;54904;54.350;18.664;2022-10-03T19:11:16;16.30;99.90
18321;DHT22;54904;54.350;18.664;2022-10-03T19:13:52;16.30;99.90
18321;DHT22;54904;54.350;18.664;2022-10-03T19:16:54;16.30;99.90
18321;DHT22;54904;54.350;18.664;2022-10-03T19:19:27;16.30;99.90
18321;DHT22;54904;54.350;18.664;2022-10-03T19:22:01;16.30;99.90
18321;DHT22;54904;54.350;18.664;2022-10-03T19:24:30;16.20;99.90
18321;DHT22;54904;54.350;18.664;2022-10-03T19:27:00;16.20;99.90
18321;DHT22;54904;54.350;18.664;2022-10-03T19:29:32;16.20;99.90
18321;DHT22;54904;54.350;18.664;2022-10-03T19:32:05;16.20;99.90
18321;DHT22;54904;54.350;18.664;2022-10-03T19:34:36;16.20;99.90
18321;DHT22;54904;54.350;18.664;2022-10-03T19:37:06;16.20;99.90
18321;DHT22;54904;54.350;18.664;2022-10-03T19:39:37;16.20;99.90
18321;DHT22;54904;54.350;18.664;2022-10-03T19:42:21;16.20;99.90